createdAt,value
2022-12-24T00:01:20.812Z,7.27
2022-12-24T00:03:48.169Z,5.20
2022-12-24T00:06:24.183Z,5.87
2022-12-24T00:08:51.506Z,5.87
2022-12-24T00:11:19.450Z,5.70
2022-12-24T00:13:47.015Z,6.13
2022-12-24T00:16:14.295Z,5.90
2022-12-24T00:18:45.866Z,5.60
2022-12-24T00:21:15.515Z,6.57
2022-12-24T00:23:42.724Z,5.47
2022-12-24T00:26:09.773Z,4.80
2022-12-24T00:28:36.835Z,5.67
2022-12-24T00:31:16.724Z,5.80
2022-12-24T00:33:46.318Z,5.80
2022-12-24T00:36:13.953Z,5.77
2022-12-24T00:38:40.995Z,5.80
2022-12-24T00:41:26.068Z,7.60
2022-12-24T00:44:10.340Z,5.57
2022-12-24T00:46:40.321Z,5.90
2022-12-24T00:49:09.460Z,5.93
2022-12-24T00:51:37.363Z,6.40
2022-12-24T00:54:05.263Z,6.13
2022-12-24T00:56:32.840Z,6.63
2022-12-24T00:59:00.263Z,6.93
2022-12-24T01:01:28.487Z,6.43
2022-12-24T01:04:16.606Z,6.03
2022-12-24T01:06:44.163Z,5.93
2022-12-24T01:09:11.463Z,6.20
2022-12-24T01:11:38.494Z,6.60
2022-12-24T01:14:05.579Z,6.57
2022-12-24T01:16:32.726Z,6.13
2022-12-24T01:18:59.869Z,6.63
2022-12-24T01:21:27.310Z,6.10
2022-12-24T01:23:54.516Z,5.73
2022-12-24T01:26:21.737Z,6.10
2022-12-24T01:28:49.036Z,6.60
2022-12-24T01:31:19.220Z,6.87
2022-12-24T01:33:48.939Z,6.60
2022-12-24T01:36:16.371Z,6.37
2022-12-24T01:38:43.687Z,7.37
2022-12-24T01:41:42.093Z,7.03
2022-12-24T01:44:36.627Z,5.70
2022-12-24T01:47:09.961Z,5.07
2022-12-24T01:49:42.435Z,5.40
2022-12-24T01:52:35.590Z,5.70
2022-12-24T01:55:10.897Z,6.37
2022-12-24T01:57:48.805Z,6.40
2022-12-24T02:00:17.003Z,6.20
2022-12-24T02:02:48.547Z,6.80
2022-12-24T02:05:24.024Z,6.10
2022-12-24T02:07:52.177Z,6.03
2022-12-24T02:10:19.437Z,6.83
2022-12-24T02:12:47.519Z,6.37
2022-12-24T02:15:19.326Z,6.00
2022-12-24T02:18:15.045Z,6.17
2022-12-24T02:20:56.944Z,5.70
2022-12-24T02:23:49.994Z,6.27
2022-12-24T02:26:34.455Z,5.00
2022-12-24T02:29:31.721Z,5.50
2022-12-24T02:32:06.024Z,6.10
2022-12-24T02:34:48.313Z,5.17
2022-12-24T02:37:25.181Z,5.87
2022-12-24T02:40:22.237Z,6.77
2022-12-24T02:42:55.607Z,5.70
2022-12-24T02:45:32.934Z,5.43
2022-12-24T02:48:00.926Z,5.00
2022-12-24T02:50:28.790Z,5.67
2022-12-24T02:52:55.856Z,5.00
2022-12-24T02:55:53.762Z,4.80
2022-12-24T02:58:54.904Z,4.93
2022-12-24T03:01:30.992Z,4.87
2022-12-24T03:04:41.308Z,5.83
2022-12-24T03:07:28.311Z,5.27
2022-12-24T03:10:42.015Z,5.13
2022-12-24T03:13:18.729Z,4.93
2022-12-24T03:15:47.437Z,5.17
2022-12-24T03:18:19.410Z,4.33
2022-12-24T03:21:05.606Z,4.60
2022-12-24T03:23:34.316Z,4.33
2022-12-24T03:26:07.364Z,4.20
2022-12-24T03:28:36.826Z,4.10
2022-12-24T03:31:05.992Z,3.57
2022-12-24T03:33:33.884Z,4.43
2022-12-24T03:36:01.121Z,3.90
2022-12-24T03:38:28.255Z,3.50
2022-12-24T03:40:55.332Z,4.37
2022-12-24T03:43:22.362Z,3.70
2022-12-24T03:45:49.447Z,4.63
2022-12-24T03:48:16.523Z,3.93
2022-12-24T03:50:43.530Z,4.23
2022-12-24T03:53:10.883Z,4.60
2022-12-24T03:55:39.410Z,3.83
2022-12-24T03:58:06.875Z,4.83
2022-12-24T04:00:33.906Z,4.10
2022-12-24T04:03:01.015Z,4.43
2022-12-24T04:05:28.299Z,4.07
2022-12-24T04:07:55.471Z,4.30
2022-12-24T04:10:22.468Z,5.03
2022-12-24T04:12:49.549Z,4.20
2022-12-24T04:15:16.547Z,4.63
2022-12-24T04:17:43.560Z,4.10
2022-12-24T04:20:11.573Z,4.40
2022-12-24T04:22:38.593Z,5.40
2022-12-24T04:25:06.435Z,5.07
2022-12-24T04:27:33.398Z,4.20
2022-12-24T04:30:00.487Z,4.60
2022-12-24T04:32:27.824Z,5.50
2022-12-24T04:34:54.899Z,5.13
2022-12-24T04:37:21.963Z,5.33
2022-12-24T04:39:49.023Z,4.03
2022-12-24T04:42:16.004Z,4.63
2022-12-24T04:44:42.961Z,5.87
2022-12-24T04:47:10.919Z,5.43
2022-12-24T04:49:37.956Z,4.73
2022-12-24T04:52:05.818Z,5.77
2022-12-24T04:54:32.934Z,5.50
2022-12-24T04:57:00.000Z,6.83
2022-12-24T04:59:27.110Z,4.57
2022-12-24T05:01:54.334Z,4.57
2022-12-24T05:04:21.378Z,5.37
2022-12-24T05:06:48.451Z,4.47
2022-12-24T05:09:15.546Z,4.97
2022-12-24T05:11:42.513Z,5.10
2022-12-24T05:14:09.675Z,3.93
2022-12-24T05:16:38.598Z,5.10
2022-12-24T05:19:05.904Z,5.27
2022-12-24T05:21:32.992Z,4.33
2022-12-24T05:24:18.389Z,5.60
2022-12-24T05:26:53.153Z,5.07
2022-12-24T05:29:20.912Z,4.03
2022-12-24T05:31:47.995Z,4.23
2022-12-24T05:34:16.712Z,4.73
2022-12-24T05:36:44.505Z,5.07
2022-12-24T05:39:18.930Z,5.87
2022-12-24T05:41:46.961Z,4.00
2022-12-24T05:44:14.889Z,4.60
2022-12-24T05:46:42.784Z,5.40
2022-12-24T05:49:10.130Z,4.90
2022-12-24T05:51:37.320Z,5.67
2022-12-24T05:54:05.105Z,5.20
2022-12-24T05:56:32.881Z,4.10
2022-12-24T05:59:00.102Z,5.07
2022-12-24T06:01:27.946Z,4.70
2022-12-24T06:03:56.691Z,5.27
2022-12-24T06:06:27.182Z,4.67
2022-12-24T06:08:55.987Z,4.83
2022-12-24T06:11:26.506Z,4.73
2022-12-24T06:13:54.177Z,4.13
2022-12-24T06:16:24.240Z,6.23
2022-12-24T06:18:51.872Z,5.43
2022-12-24T06:21:19.576Z,4.73
2022-12-24T06:23:47.589Z,5.37
2022-12-24T06:26:19.331Z,4.80
2022-12-24T06:28:50.940Z,4.33
2022-12-24T06:31:22.190Z,5.13
2022-12-24T06:33:50.039Z,4.93
2022-12-24T06:36:22.264Z,4.87
2022-12-24T06:38:50.517Z,5.40
2022-12-24T06:41:19.175Z,7.37
2022-12-24T06:43:49.032Z,4.73
2022-12-24T06:46:16.997Z,5.33
2022-12-24T06:48:45.662Z,5.57
2022-12-24T06:51:14.686Z,5.67
2022-12-24T06:53:41.892Z,5.87
2022-12-24T06:56:12.874Z,5.17
2022-12-24T06:58:41.142Z,6.20
2022-12-24T07:01:11.926Z,5.77
2022-12-24T07:03:40.026Z,5.63
2022-12-24T07:06:28.960Z,6.20
2022-12-24T07:08:56.398Z,5.67
2022-12-24T07:11:25.431Z,5.30
2022-12-24T07:13:52.907Z,6.90
2022-12-24T07:16:20.275Z,6.53
2022-12-24T07:18:47.562Z,6.20
2022-12-24T07:21:14.704Z,5.70
2022-12-24T07:23:41.923Z,6.30
2022-12-24T07:26:09.025Z,6.57
2022-12-24T07:28:36.044Z,5.63
2022-12-24T07:31:03.508Z,5.97
2022-12-24T07:33:30.806Z,5.90
2022-12-24T07:36:00.265Z,6.60
2022-12-24T07:38:27.652Z,5.20
2022-12-24T07:40:54.696Z,6.83
2022-12-24T07:43:21.787Z,6.43
2022-12-24T07:45:48.910Z,6.00
2022-12-24T07:48:15.989Z,5.67
2022-12-24T07:50:43.259Z,6.30
2022-12-24T07:53:10.403Z,6.00
2022-12-24T07:55:37.492Z,6.83
2022-12-24T07:58:04.582Z,6.00
2022-12-24T08:00:31.752Z,5.57
2022-12-24T08:03:00.206Z,6.20
2022-12-24T08:05:29.144Z,4.87
2022-12-24T08:07:56.453Z,5.63
2022-12-24T08:10:23.522Z,5.60
2022-12-24T08:12:50.955Z,4.97
2022-12-24T08:15:18.503Z,6.07
2022-12-24T08:17:45.920Z,4.93
2022-12-24T08:20:13.118Z,5.87
2022-12-24T08:22:40.403Z,5.47
2022-12-24T08:25:08.563Z,5.50
2022-12-24T08:27:36.140Z,5.53
2022-12-24T08:30:05.919Z,4.80
2022-12-24T08:32:32.996Z,5.70
2022-12-24T08:35:00.056Z,5.27
2022-12-24T08:37:27.191Z,5.07
2022-12-24T08:39:54.634Z,5.47
2022-12-24T08:42:21.809Z,7.03
2022-12-24T08:44:48.913Z,5.30
2022-12-24T08:47:16.735Z,5.70
2022-12-24T08:49:44.040Z,5.20
2022-12-24T08:52:11.345Z,5.57
2022-12-24T08:54:38.400Z,5.70
2022-12-24T08:57:05.403Z,6.00
2022-12-24T08:59:32.437Z,5.80
2022-12-24T09:01:59.949Z,6.63
2022-12-24T09:04:27.220Z,5.97
2022-12-24T09:06:54.233Z,6.27
2022-12-24T09:09:21.312Z,5.97
2022-12-24T09:11:48.627Z,5.40
2022-12-24T09:14:15.707Z,5.90
2022-12-24T09:16:42.823Z,6.30
2022-12-24T09:19:09.898Z,5.70
2022-12-24T09:21:37.343Z,5.77
2022-12-24T09:24:05.475Z,6.07
2022-12-24T09:26:32.713Z,6.10
2022-12-24T09:29:01.492Z,6.87
2022-12-24T09:31:29.493Z,6.23
2022-12-24T09:33:56.645Z,6.20
2022-12-24T09:36:23.845Z,5.20
2022-12-24T09:38:51.103Z,6.63
2022-12-24T09:41:57.902Z,6.70
2022-12-24T09:44:48.939Z,5.73
2022-12-24T09:47:25.458Z,5.80
2022-12-24T09:49:56.039Z,6.20
2022-12-24T09:52:41.356Z,5.77
2022-12-24T09:55:55.666Z,5.40
2022-12-24T09:58:50.905Z,6.07
2022-12-24T10:01:19.252Z,5.83
2022-12-24T10:03:47.487Z,7.17
2022-12-24T10:06:28.807Z,6.17
2022-12-24T10:09:16.780Z,6.33
2022-12-24T10:12:01.267Z,5.67
2022-12-24T10:14:54.257Z,6.70
2022-12-24T10:17:54.547Z,6.13
2022-12-24T10:20:55.850Z,5.90
2022-12-24T10:24:34.681Z,5.77
2022-12-24T10:27:11.907Z,5.63
2022-12-24T10:29:46.014Z,6.07
2022-12-24T10:32:21.374Z,6.33
2022-12-24T10:35:14.692Z,7.37
2022-12-24T10:37:44.985Z,6.77
2022-12-24T10:40:37.229Z,6.13
2022-12-24T10:43:33.670Z,6.43
2022-12-24T10:46:32.383Z,6.38
2022-12-24T10:49:06.581Z,5.73
2022-12-24T10:51:56.565Z,6.73
2022-12-24T10:54:28.131Z,6.30
2022-12-24T10:57:01.777Z,6.57
2022-12-24T10:59:40.671Z,5.40
2022-12-24T11:02:28.647Z,6.67
2022-12-24T11:04:56.337Z,6.55
2022-12-24T11:07:24.284Z,5.68
2022-12-24T11:10:07.629Z,6.65
2022-12-24T11:13:00.317Z,7.80
2022-12-24T11:15:35.151Z,6.43
2022-12-24T11:18:14.757Z,6.32
2022-12-24T11:20:48.963Z,6.13
2022-12-24T11:23:17.949Z,5.43
2022-12-24T11:25:50.781Z,7.20
2022-12-24T11:28:24.964Z,5.70
2022-12-24T11:31:03.144Z,6.18
2022-12-24T11:33:32.052Z,6.18
2022-12-24T11:36:06.716Z,6.78
2022-12-24T11:38:35.302Z,7.25
2022-12-24T11:41:10.592Z,6.20
2022-12-24T11:43:45.420Z,7.65
2022-12-24T11:46:27.299Z,6.38
2022-12-24T11:49:12.438Z,7.47
2022-12-24T11:52:11.045Z,6.95
2022-12-24T11:55:10.291Z,7.15
2022-12-24T11:58:27.653Z,6.75
2022-12-24T12:01:29.746Z,7.57
2022-12-24T12:04:31.522Z,7.30
2022-12-24T12:07:20.653Z,6.90
2022-12-24T12:10:00.556Z,6.32
2022-12-24T12:12:45.410Z,6.38
2022-12-24T12:15:16.864Z,5.97
2022-12-24T12:17:58.011Z,6.70
2022-12-24T12:20:49.065Z,7.05
2022-12-24T12:23:30.921Z,6.72
2022-12-24T12:26:04.855Z,6.90
2022-12-24T12:28:52.609Z,7.50
2022-12-24T12:31:42.925Z,6.85
2022-12-24T12:34:26.745Z,6.70
2022-12-24T12:37:15.060Z,7.20
2022-12-24T12:39:43.197Z,6.72
2022-12-24T12:42:37.506Z,6.40
2022-12-24T12:45:29.404Z,6.07
2022-12-24T12:48:09.077Z,6.25
2022-12-24T12:50:48.124Z,6.55
2022-12-24T12:54:03.098Z,6.20
2022-12-24T12:56:39.829Z,7.00
2022-12-24T13:00:03.752Z,6.13
2022-12-24T13:03:05.637Z,6.38
2022-12-24T13:06:35.124Z,6.05
2022-12-24T13:09:11.171Z,6.88
2022-12-24T13:11:50.261Z,7.35
2022-12-24T13:14:44.482Z,6.07
2022-12-24T13:17:49.106Z,6.32
2022-12-24T13:20:24.590Z,7.05
2022-12-24T13:22:58.509Z,5.60
2022-12-24T13:25:51.345Z,7.35
2022-12-24T13:28:38.880Z,5.65
2022-12-24T13:31:11.984Z,5.72
2022-12-24T13:33:39.497Z,5.68
2022-12-24T13:36:17.698Z,6.28
2022-12-24T13:38:54.917Z,5.45
2022-12-24T13:41:39.976Z,5.67
2022-12-24T13:44:12.669Z,6.03
2022-12-24T13:47:05.208Z,6.03
2022-12-24T13:49:40.558Z,5.57
2022-12-24T13:52:21.781Z,7.82
2022-12-24T13:54:54.684Z,5.97
2022-12-24T13:58:03.852Z,4.97
2022-12-24T14:00:41.520Z,5.55
2022-12-24T14:03:14.715Z,4.80
2022-12-24T14:05:45.073Z,5.13
2022-12-24T14:08:32.272Z,5.53
2022-12-24T14:11:19.830Z,5.20
2022-12-24T14:13:46.787Z,5.22
2022-12-24T14:16:28.866Z,5.18
2022-12-24T14:19:02.339Z,5.28
2022-12-24T14:21:37.239Z,5.20
2022-12-24T14:24:15.819Z,6.03
2022-12-24T14:27:05.976Z,5.80
2022-12-24T14:29:41.703Z,4.78
2022-12-24T14:32:16.448Z,4.80
2022-12-24T14:34:44.602Z,5.63
2022-12-24T14:37:13.944Z,5.73
2022-12-24T14:39:49.568Z,4.85
2022-12-24T14:42:59.589Z,4.97
2022-12-24T14:45:43.474Z,5.07
2022-12-24T14:49:05.179Z,5.17
2022-12-24T14:52:05.498Z,5.47
2022-12-24T14:54:42.922Z,6.03
2022-12-24T14:57:14.965Z,5.03
2022-12-24T15:00:02.251Z,5.33
2022-12-24T15:02:43.177Z,6.43
2022-12-24T15:05:29.644Z,6.00
2022-12-24T15:08:08.987Z,5.53
2022-12-24T15:10:41.666Z,6.73
2022-12-24T15:13:24.080Z,6.13
2022-12-24T15:15:54.232Z,5.87
2022-12-24T15:18:28.074Z,6.67
2022-12-24T15:21:03.965Z,5.87
2022-12-24T15:23:37.099Z,5.53
2022-12-24T15:26:30.019Z,5.70
2022-12-24T15:29:03.539Z,6.03
2022-12-24T15:31:31.599Z,6.10
2022-12-24T15:33:59.618Z,5.53
2022-12-24T15:36:36.729Z,6.00
2022-12-24T15:39:13.807Z,6.77
2022-12-24T15:42:03.007Z,6.80
2022-12-24T15:44:38.786Z,5.43
2022-12-24T15:47:14.495Z,6.47
2022-12-24T15:49:49.039Z,6.33
2022-12-24T15:52:20.853Z,5.97
2022-12-24T15:54:55.461Z,6.10
2022-12-24T15:57:30.476Z,6.20
2022-12-24T16:00:00.001Z,8.03
2022-12-24T16:02:35.352Z,6.37
2022-12-24T16:05:32.997Z,5.80
2022-12-24T16:08:24.194Z,5.83
2022-12-24T16:11:05.450Z,6.03
2022-12-24T16:13:40.506Z,7.00
2022-12-24T16:16:14.544Z,6.63
2022-12-24T16:18:59.801Z,6.83
2022-12-24T16:21:42.528Z,7.47
2022-12-24T16:24:25.939Z,7.23
2022-12-24T16:26:54.254Z,7.03
2022-12-24T16:29:22.639Z,6.73
2022-12-24T16:31:58.066Z,8.23
2022-12-24T16:34:31.454Z,5.90
2022-12-24T16:36:59.924Z,7.90
2022-12-24T16:39:33.723Z,7.13
2022-12-24T16:42:22.814Z,7.57
2022-12-24T16:44:53.827Z,6.77
2022-12-24T16:47:33.801Z,7.60
2022-12-24T16:50:08.329Z,8.23
2022-12-24T16:52:35.410Z,8.70
2022-12-24T16:55:02.868Z,9.17
2022-12-24T16:57:32.958Z,9.20
2022-12-24T17:00:00.031Z,8.50
2022-12-24T17:02:27.206Z,9.10
2022-12-24T17:04:55.196Z,8.93
2022-12-24T17:07:22.407Z,7.97
2022-12-24T17:09:49.468Z,9.17
2022-12-24T17:12:16.763Z,10.00
2022-12-24T17:14:43.903Z,10.20
2022-12-24T17:17:28.012Z,10.90
2022-12-24T17:19:56.215Z,10.93
2022-12-24T17:22:24.826Z,11.47
2022-12-24T17:24:51.826Z,11.50
2022-12-24T17:27:19.029Z,11.53
2022-12-24T17:29:46.152Z,11.63
2022-12-24T17:32:13.304Z,11.33
2022-12-24T17:34:40.506Z,12.37
2022-12-24T17:37:07.567Z,11.10
2022-12-24T17:39:34.660Z,10.60
2022-12-24T17:42:01.763Z,10.80
2022-12-24T17:44:28.801Z,10.87
2022-12-24T17:46:55.935Z,11.43
2022-12-24T17:49:23.102Z,9.60
2022-12-24T17:51:50.120Z,11.57
2022-12-24T17:54:17.249Z,11.13
2022-12-24T17:56:44.396Z,12.23
2022-12-24T17:59:11.407Z,11.17
2022-12-24T18:01:38.562Z,11.03
2022-12-24T18:04:06.199Z,10.43
2022-12-24T18:06:33.823Z,10.03
2022-12-24T18:09:00.926Z,12.00
2022-12-24T18:11:34.824Z,11.83
2022-12-24T18:14:03.772Z,12.87
2022-12-24T18:16:36.739Z,12.20
2022-12-24T18:19:06.488Z,10.77
2022-12-24T18:21:34.437Z,11.27
2022-12-24T18:24:01.529Z,11.60
2022-12-24T18:26:30.548Z,9.60
2022-12-24T18:29:00.184Z,11.03
2022-12-24T18:31:29.648Z,10.57
2022-12-24T18:33:57.096Z,10.87
2022-12-24T18:36:24.321Z,10.30
2022-12-24T18:38:52.144Z,10.97
2022-12-24T18:41:24.110Z,10.33
2022-12-24T18:43:52.018Z,10.77
2022-12-24T18:46:25.739Z,10.30
2022-12-24T18:48:54.612Z,9.70
2022-12-24T18:51:24.289Z,11.60
2022-12-24T18:53:51.945Z,10.83
2022-12-24T18:56:23.367Z,9.87
2022-12-24T18:58:58.556Z,10.10
2022-12-24T19:01:29.884Z,9.73
2022-12-24T19:03:57.612Z,10.90
2022-12-24T19:06:25.373Z,14.03
2022-12-24T19:09:01.781Z,15.10
2022-12-24T19:11:34.261Z,15.20
2022-12-24T19:14:03.402Z,13.30
2022-12-24T19:16:37.457Z,13.53
2022-12-24T19:19:07.406Z,12.27
2022-12-24T19:21:34.817Z,11.53
2022-12-24T19:24:02.156Z,11.67
2022-12-24T19:26:29.302Z,12.20
2022-12-24T19:28:56.276Z,12.00
2022-12-24T19:31:25.820Z,12.60
2022-12-24T19:33:56.173Z,11.23
2022-12-24T19:36:27.008Z,12.00
2022-12-24T19:38:57.170Z,12.03
2022-12-24T19:41:27.334Z,13.70
2022-12-24T19:43:57.766Z,13.67
2022-12-24T19:46:29.178Z,16.13
2022-12-24T19:49:04.998Z,18.00
2022-12-24T19:51:32.537Z,15.97
2022-12-24T19:54:00.963Z,14.40
2022-12-24T19:56:30.953Z,15.00
2022-12-24T19:59:00.054Z,12.70
2022-12-24T20:01:30.964Z,12.57
2022-12-24T20:03:58.224Z,12.27
2022-12-24T20:06:33.081Z,12.90
2022-12-24T20:09:04.883Z,14.30
2022-12-24T20:11:33.106Z,11.77
2022-12-24T20:14:02.894Z,13.90
2022-12-24T20:16:30.595Z,11.97
2022-12-24T20:19:01.502Z,14.63
2022-12-24T20:21:30.368Z,13.80
2022-12-24T20:23:57.399Z,14.17
2022-12-24T20:26:28.755Z,12.43
2022-12-24T20:28:56.073Z,13.47
2022-12-24T20:31:29.396Z,13.53
2022-12-24T20:33:58.050Z,13.37
2022-12-24T20:36:27.152Z,13.80
2022-12-24T20:38:54.349Z,12.87
2022-12-24T20:41:24.771Z,14.60
2022-12-24T20:43:51.906Z,13.87
2022-12-24T20:46:22.979Z,13.30
2022-12-24T20:48:50.543Z,13.70
2022-12-24T20:51:24.887Z,13.13
2022-12-24T20:53:55.549Z,12.17
2022-12-24T20:56:23.858Z,11.63
2022-12-24T20:58:51.453Z,11.40
2022-12-24T21:01:25.007Z,12.60
2022-12-24T21:03:54.313Z,11.67
2022-12-24T21:06:23.581Z,12.87
2022-12-24T21:08:53.398Z,11.70
2022-12-24T21:11:40.797Z,13.13
2022-12-24T21:14:08.497Z,13.20
2022-12-24T21:16:37.098Z,13.70
2022-12-24T21:19:06.328Z,13.13
2022-12-24T21:21:35.294Z,12.27
2022-12-24T21:24:03.916Z,12.83
2022-12-24T21:26:32.210Z,11.53
2022-12-24T21:29:00.198Z,12.60
2022-12-24T21:31:27.989Z,13.07
2022-12-24T21:33:56.530Z,13.43
2022-12-24T21:36:24.649Z,11.57
2022-12-24T21:38:52.549Z,11.03
2022-12-24T21:41:24.631Z,11.23
2022-12-24T21:43:52.241Z,11.87
2022-12-24T21:46:25.074Z,10.63
2022-12-24T21:49:12.475Z,10.13
2022-12-24T21:51:39.947Z,11.07
2022-12-24T21:54:26.097Z,9.70
2022-12-24T21:57:19.205Z,10.60
2022-12-24T21:59:46.624Z,10.40
2022-12-24T22:02:16.183Z,10.53
2022-12-24T22:04:43.664Z,11.10
2022-12-24T22:07:38.003Z,10.17
2022-12-24T22:10:24.490Z,10.40
2022-12-24T22:12:51.590Z,10.30
2022-12-24T22:15:18.735Z,14.40
2022-12-24T22:17:45.881Z,14.90
2022-12-24T22:20:13.152Z,12.17
2022-12-24T22:22:40.172Z,10.43
2022-12-24T22:25:07.705Z,10.27
2022-12-24T22:27:34.802Z,8.70
2022-12-24T22:30:01.871Z,8.97
2022-12-24T22:32:28.871Z,8.10
2022-12-24T22:34:55.866Z,9.93
2022-12-24T22:37:22.964Z,8.73
2022-12-24T22:39:50.071Z,7.80
2022-12-24T22:42:17.734Z,7.67
2022-12-24T22:44:44.780Z,9.30
2022-12-24T22:47:11.796Z,7.60
2022-12-24T22:49:38.808Z,7.73
2022-12-24T22:52:05.885Z,7.20
2022-12-24T22:54:33.047Z,8.17
2022-12-24T22:57:00.234Z,11.30
2022-12-24T22:59:27.315Z,8.57
2022-12-24T23:01:55.875Z,9.40
2022-12-24T23:04:23.178Z,8.57
2022-12-24T23:06:50.360Z,8.17
2022-12-24T23:09:17.956Z,8.77
2022-12-24T23:11:45.601Z,7.73
2022-12-24T23:14:38.111Z,7.80
2022-12-24T23:17:06.236Z,8.00
2022-12-24T23:19:34.133Z,8.40
2022-12-24T23:22:03.338Z,8.10
2022-12-24T23:24:31.174Z,8.40
2022-12-24T23:27:01.371Z,8.13
2022-12-24T23:29:30.071Z,8.73
2022-12-24T23:31:57.968Z,7.20
2022-12-24T23:34:25.613Z,6.63
2022-12-24T23:36:52.693Z,6.77
2022-12-24T23:39:19.743Z,7.63
2022-12-24T23:41:46.700Z,6.20
2022-12-24T23:44:13.893Z,6.77
2022-12-24T23:46:40.978Z,6.80
2022-12-24T23:49:08.150Z,7.20
2022-12-24T23:51:35.377Z,7.67
2022-12-24T23:54:02.419Z,6.97
2022-12-24T23:56:29.535Z,5.70
2022-12-24T23:58:56.627Z,6.37
